createdAt,value
2019-04-28T00:01:08.048Z,25.52
2019-04-28T00:02:42.273Z,20.77
2019-04-28T00:04:16.535Z,34.13
2019-04-28T00:05:51.426Z,18.95
2019-04-28T00:07:25.666Z,13.05
2019-04-28T00:09:01.600Z,13.98
2019-04-28T00:10:35.788Z,16.20
2019-04-28T00:12:11.512Z,11.63
2019-04-28T00:13:46.052Z,16.05
2019-04-28T00:15:20.831Z,23.22
2019-04-28T00:16:55.256Z,18.48
2019-04-28T00:18:31.538Z,13.70
2019-04-28T00:20:07.669Z,15.05
2019-04-28T00:21:43.525Z,20.45
2019-04-28T00:23:19.392Z,24.25
2019-04-28T00:24:58.056Z,18.87
2019-04-28T00:26:46.688Z,16.95
2019-04-28T00:28:21.239Z,17.02
2019-04-28T00:29:55.581Z,22.05
2019-04-28T00:31:31.230Z,18.12
2019-04-28T00:33:05.547Z,17.12
2019-04-28T00:34:41.227Z,19.40
2019-04-28T00:36:15.718Z,17.05
2019-04-28T00:37:51.661Z,25.43
2019-04-28T00:39:26.008Z,24.05
2019-04-28T00:41:02.262Z,25.17
2019-04-28T00:42:36.736Z,22.93
2019-04-28T00:44:11.941Z,26.40
2019-04-28T00:45:46.744Z,32.10
2019-04-28T00:47:21.162Z,33.73
2019-04-28T00:48:55.628Z,26.05
2019-04-28T00:50:31.520Z,23.92
2019-04-28T00:52:05.768Z,21.87
2019-04-28T00:53:40.862Z,16.40
2019-04-28T00:55:15.397Z,16.52
2019-04-28T00:56:51.582Z,18.73
2019-04-28T00:58:25.805Z,18.98
2019-04-28T01:00:02.199Z,14.98
2019-04-28T01:01:52.228Z,20.85
2019-04-28T01:03:26.584Z,21.57
2019-04-28T01:05:01.641Z,25.52
2019-04-28T01:06:36.328Z,21.05
2019-04-28T01:08:11.030Z,19.77
2019-04-28T01:09:45.315Z,19.42
2019-04-28T01:11:19.542Z,13.58
2019-04-28T01:12:54.146Z,8.68
2019-04-28T01:14:28.345Z,10.45
2019-04-28T01:16:06.956Z,12.40
2019-04-28T01:17:52.077Z,8.73
2019-04-28T01:19:27.925Z,13.08
2019-04-28T01:21:02.132Z,9.13
2019-04-28T01:22:36.417Z,11.60
2019-04-28T01:24:11.796Z,8.75
2019-04-28T01:25:50.087Z,9.43
2019-04-28T01:27:31.926Z,10.45
2019-04-28T01:29:06.548Z,15.88
2019-04-28T01:30:45.364Z,8.25
2019-04-28T01:32:30.217Z,12.75
2019-04-28T01:34:21.448Z,7.33
2019-04-28T01:35:55.643Z,7.60
2019-04-28T01:37:29.852Z,7.72
2019-04-28T01:39:06.176Z,5.90
2019-04-28T01:40:41.382Z,9.25
2019-04-28T01:42:15.688Z,7.90
2019-04-28T01:43:49.901Z,8.80
2019-04-28T01:45:24.353Z,5.08
2019-04-28T01:46:59.521Z,7.30
2019-04-28T01:48:34.444Z,6.85
2019-04-28T01:50:10.172Z,7.67
2019-04-28T01:51:46.133Z,5.53
2019-04-28T01:53:20.355Z,6.75
2019-04-28T01:54:54.611Z,5.83
2019-04-28T01:56:30.434Z,7.15
2019-04-28T01:58:04.673Z,8.15
2019-04-28T01:59:40.318Z,11.25
2019-04-28T02:01:14.881Z,6.95
2019-04-28T02:02:50.541Z,8.78
2019-04-28T02:04:24.934Z,7.42
2019-04-28T02:06:00.175Z,7.90
2019-04-28T02:07:34.905Z,11.05
2019-04-28T02:09:09.791Z,8.18
2019-04-28T02:10:43.996Z,10.23
2019-04-28T02:12:20.156Z,10.32
2019-04-28T02:13:54.112Z,8.95
2019-04-28T02:15:30.058Z,14.25
2019-04-28T02:17:04.258Z,13.08
2019-04-28T02:18:39.906Z,5.95
2019-04-28T02:20:15.476Z,11.50
2019-04-28T02:21:57.036Z,12.58
2019-04-28T02:23:32.884Z,7.70
2019-04-28T02:25:09.918Z,9.80
2019-04-28T02:26:44.104Z,10.23
2019-04-28T02:28:19.822Z,10.08
2019-04-28T02:29:54.273Z,12.78
2019-04-28T02:31:31.301Z,7.12
2019-04-28T02:33:04.445Z,11.30
2019-04-28T02:34:41.155Z,14.18
2019-04-28T02:36:14.513Z,9.20
2019-04-28T02:37:50.401Z,12.95
2019-04-28T02:39:24.622Z,12.93
2019-04-28T02:41:00.184Z,18.37
2019-04-28T02:42:34.559Z,21.85
2019-04-28T02:44:10.397Z,10.35
2019-04-28T02:45:45.186Z,18.05
2019-04-28T02:47:21.873Z,10.13
2019-04-28T02:48:55.777Z,16.07
2019-04-28T02:50:33.113Z,6.12
2019-04-28T02:52:15.119Z,7.53
2019-04-28T02:53:51.197Z,7.95
2019-04-28T02:55:25.169Z,9.25
2019-04-28T02:57:01.309Z,8.60
2019-04-28T02:58:35.267Z,8.38
2019-04-28T03:00:10.446Z,8.10
2019-04-28T03:01:44.950Z,8.53
2019-04-28T03:03:21.088Z,7.65
2019-04-28T03:04:55.057Z,13.03
2019-04-28T03:06:30.650Z,8.70
2019-04-28T03:08:05.079Z,8.60
2019-04-28T03:09:40.330Z,11.60
2019-04-28T03:11:14.828Z,12.80
2019-04-28T03:12:51.720Z,10.45
2019-04-28T03:14:24.903Z,9.98
2019-04-28T03:16:01.465Z,8.38
2019-04-28T03:17:35.124Z,6.08
2019-04-28T03:19:10.943Z,9.83
2019-04-28T03:20:45.345Z,12.33
2019-04-28T03:22:20.493Z,7.20
2019-04-28T03:23:54.897Z,5.83
2019-04-28T03:25:45.713Z,7.22
2019-04-28T03:27:27.308Z,6.60
2019-04-28T03:29:21.356Z,12.03
2019-04-28T03:31:22.100Z,12.13
2019-04-28T03:32:52.415Z,9.20
2019-04-28T03:34:16.860Z,10.65
2019-04-28T03:35:53.684Z,15.70
2019-04-28T03:37:26.968Z,10.93
2019-04-28T03:39:01.192Z,10.43
2019-04-28T03:40:35.400Z,9.03
2019-04-28T03:42:11.679Z,7.85
2019-04-28T03:43:45.569Z,7.83
2019-04-28T03:45:21.413Z,9.25
2019-04-28T03:46:56.089Z,7.28
2019-04-28T03:48:30.842Z,11.18
2019-04-28T03:50:07.019Z,10.72
2019-04-28T03:51:41.277Z,9.45
2019-04-28T03:53:15.486Z,10.13
2019-04-28T03:54:50.853Z,8.93
2019-04-28T03:56:25.466Z,11.08
2019-04-28T03:58:00.978Z,7.55
2019-04-28T03:59:35.488Z,8.35
2019-04-28T04:01:10.918Z,8.03
2019-04-28T04:02:45.278Z,10.23
2019-04-28T04:04:21.315Z,5.80
2019-04-28T04:05:55.347Z,8.15
2019-04-28T04:07:31.137Z,8.03
2019-04-28T04:09:06.112Z,9.58
2019-04-28T04:10:53.776Z,13.62
2019-04-28T04:12:44.239Z,10.93
2019-04-28T04:14:23.077Z,9.90
2019-04-28T04:16:10.266Z,5.22
2019-04-28T04:18:03.867Z,7.12
2019-04-28T04:19:40.507Z,10.63
2019-04-28T04:21:14.003Z,7.30
2019-04-28T04:22:48.266Z,7.60
2019-04-28T04:24:23.267Z,7.97
2019-04-28T04:25:57.482Z,6.95
2019-04-28T04:27:31.684Z,7.65
2019-04-28T04:29:05.952Z,13.40
2019-04-28T04:30:40.954Z,6.45
2019-04-28T04:32:23.129Z,9.73
2019-04-28T04:33:51.339Z,10.55
2019-04-28T04:35:25.549Z,7.47
2019-04-28T04:37:00.753Z,11.43
2019-04-28T04:38:35.095Z,15.50
2019-04-28T04:40:13.091Z,5.55
2019-04-28T04:41:46.733Z,9.38
2019-04-28T04:43:23.267Z,9.40
2019-04-28T04:44:56.813Z,8.60
2019-04-28T04:46:31.502Z,6.53
2019-04-28T04:48:05.924Z,6.62
2019-04-28T04:49:40.508Z,9.05
2019-04-28T04:51:15.374Z,8.65
2019-04-28T04:52:50.176Z,7.05
2019-04-28T04:54:24.708Z,7.40
2019-04-28T04:56:00.322Z,6.37
2019-04-28T04:57:34.856Z,6.83
2019-04-28T04:59:10.222Z,8.03
2019-04-28T05:00:46.320Z,8.85
2019-04-28T05:02:29.385Z,9.60
2019-04-28T05:04:03.164Z,7.12
2019-04-28T05:05:41.444Z,10.55
2019-04-28T05:07:16.040Z,10.35
2019-04-28T05:08:50.244Z,14.43
2019-04-28T05:10:24.492Z,10.93
2019-04-28T05:11:59.757Z,8.65
2019-04-28T05:13:34.208Z,10.25
2019-04-28T05:15:10.360Z,12.25
2019-04-28T05:16:44.313Z,12.07
2019-04-28T05:18:19.972Z,7.83
2019-04-28T05:19:54.602Z,8.63
2019-04-28T05:21:32.815Z,11.35
2019-04-28T05:23:06.348Z,14.38
2019-04-28T05:24:45.917Z,11.88
2019-04-28T05:26:21.180Z,8.78
2019-04-28T05:27:58.278Z,12.47
2019-04-28T05:29:30.620Z,8.93
2019-04-28T05:31:05.009Z,9.93
2019-04-28T05:32:44.796Z,13.68
2019-04-28T05:34:15.083Z,15.85
2019-04-28T05:35:50.080Z,16.25
2019-04-28T05:37:24.540Z,10.88
2019-04-28T05:39:00.166Z,14.83
2019-04-28T05:40:34.682Z,15.08
2019-04-28T05:42:11.344Z,8.08
2019-04-28T05:43:46.588Z,11.33
2019-04-28T05:45:21.612Z,8.63
2019-04-28T05:46:55.901Z,7.97
2019-04-28T05:48:41.001Z,7.87
2019-04-28T05:50:16.853Z,8.08
2019-04-28T05:52:00.570Z,8.63
2019-04-28T05:53:36.664Z,9.05
2019-04-28T05:55:12.653Z,5.28
2019-04-28T05:56:57.453Z,9.65
2019-04-28T05:58:33.355Z,6.70
2019-04-28T06:00:19.735Z,5.08
2019-04-28T06:02:00.494Z,6.33
2019-04-28T06:03:35.451Z,4.62
2019-04-28T06:05:10.183Z,2.98
2019-04-28T06:06:46.100Z,4.75
2019-04-28T06:08:28.019Z,2.08
2019-04-28T06:10:02.248Z,3.10
2019-04-28T06:11:39.667Z,2.47
2019-04-28T06:13:14.084Z,4.67
2019-04-28T06:14:50.102Z,2.77
2019-04-28T06:16:24.263Z,3.12
2019-04-28T06:18:00.152Z,3.98
2019-04-28T06:19:34.315Z,5.92
2019-04-28T06:21:08.632Z,4.75
2019-04-28T06:22:42.851Z,5.67
2019-04-28T06:24:17.061Z,3.20
2019-04-28T06:25:51.281Z,3.75
2019-04-28T06:27:25.509Z,5.83
2019-04-28T06:28:59.712Z,9.33
2019-04-28T06:30:33.988Z,5.37
2019-04-28T06:32:08.188Z,3.35
2019-04-28T06:33:44.486Z,4.65
2019-04-28T06:35:18.294Z,3.83
2019-04-28T06:36:52.562Z,4.65
2019-04-28T06:38:26.772Z,5.65
2019-04-28T06:40:01.031Z,4.97
2019-04-28T06:41:35.229Z,5.40
2019-04-28T06:43:09.428Z,1.72
2019-04-28T06:44:43.688Z,7.70
2019-04-28T06:46:17.893Z,5.03
2019-04-28T06:47:52.096Z,4.92
2019-04-28T06:49:26.304Z,4.30
2019-04-28T06:51:00.556Z,6.47
2019-04-28T06:52:34.760Z,3.80
2019-04-28T06:54:08.964Z,1.60
2019-04-28T06:55:43.508Z,4.87
2019-04-28T06:57:17.712Z,5.15
2019-04-28T06:58:58.826Z,1.80
2019-04-28T07:00:27.851Z,3.72
2019-04-28T07:02:02.069Z,3.45
2019-04-28T07:03:36.678Z,13.53
2019-04-28T07:05:10.896Z,2.52
2019-04-28T07:06:45.130Z,4.90
2019-04-28T07:08:19.333Z,3.47
2019-04-28T07:09:53.645Z,2.15
2019-04-28T07:11:27.926Z,5.17
2019-04-28T07:13:02.187Z,1.55
2019-04-28T07:14:36.388Z,1.42
2019-04-28T07:16:10.589Z,2.42
2019-04-28T07:17:44.864Z,2.65
2019-04-28T07:19:19.128Z,4.17
2019-04-28T07:20:55.002Z,0.85
2019-04-28T07:22:32.985Z,1.90
2019-04-28T07:24:07.669Z,1.57
2019-04-28T07:25:41.995Z,3.45
2019-04-28T07:27:16.321Z,1.80
2019-04-28T07:28:50.632Z,4.60
2019-04-28T07:30:24.909Z,3.27
2019-04-28T07:31:59.225Z,3.35
2019-04-28T07:33:36.286Z,5.12
2019-04-28T07:35:09.359Z,1.50
2019-04-28T07:36:43.525Z,4.60
2019-04-28T07:38:17.756Z,1.87
2019-04-28T07:39:51.956Z,4.95
2019-04-28T07:41:26.205Z,2.45
2019-04-28T07:43:00.411Z,1.72
2019-04-28T07:44:34.616Z,3.83
2019-04-28T07:46:08.825Z,1.72
2019-04-28T07:47:43.071Z,2.52
2019-04-28T07:49:17.365Z,2.10
2019-04-28T07:50:51.569Z,2.22
2019-04-28T07:52:30.393Z,1.82
2019-04-28T07:54:06.280Z,5.65
2019-04-28T07:55:40.490Z,2.80
2019-04-28T07:57:14.813Z,4.62
2019-04-28T07:58:48.973Z,1.72
2019-04-28T08:00:27.574Z,2.33
2019-04-28T08:02:01.769Z,3.12
2019-04-28T08:03:48.454Z,2.10
2019-04-28T08:05:12.421Z,3.33
2019-04-28T08:06:46.717Z,2.27
2019-04-28T08:08:20.989Z,1.70
2019-04-28T08:09:55.831Z,2.70
2019-04-28T08:11:30.035Z,2.05
2019-04-28T08:13:05.340Z,2.20
2019-04-28T08:14:39.581Z,1.32
2019-04-28T08:16:13.831Z,6.83
2019-04-28T08:17:48.055Z,4.53
2019-04-28T08:19:22.292Z,6.70
2019-04-28T08:20:56.496Z,3.60
2019-04-28T08:22:30.733Z,2.45
2019-04-28T08:24:05.064Z,3.72
2019-04-28T08:25:39.349Z,2.47
2019-04-28T08:27:13.625Z,3.15
2019-04-28T08:28:47.908Z,2.33
2019-04-28T08:30:22.222Z,1.37
2019-04-28T08:32:14.286Z,1.98
2019-04-28T08:34:02.561Z,1.90
2019-04-28T08:35:32.117Z,1.00
2019-04-28T08:37:06.389Z,3.12
2019-04-28T08:38:40.592Z,1.42
2019-04-28T08:40:14.888Z,0.65
2019-04-28T08:41:49.108Z,2.40
2019-04-28T08:43:23.783Z,3.47
2019-04-28T08:44:58.046Z,1.17
2019-04-28T08:46:32.309Z,1.62
2019-04-28T08:48:06.512Z,1.75
2019-04-28T08:49:40.714Z,2.95
2019-04-28T08:51:15.030Z,1.22
2019-04-28T08:52:49.304Z,1.22
2019-04-28T08:54:23.510Z,4.20
2019-04-28T08:55:57.776Z,3.65
2019-04-28T08:57:31.982Z,1.20
2019-04-28T08:59:06.738Z,1.92
2019-04-28T09:00:41.001Z,2.85
2019-04-28T09:02:15.201Z,3.00
2019-04-28T09:03:49.452Z,3.22
2019-04-28T09:05:24.104Z,1.27
2019-04-28T09:06:58.352Z,3.60
2019-04-28T09:08:32.552Z,2.98
2019-04-28T09:10:09.104Z,1.77
2019-04-28T09:11:43.713Z,8.10
2019-04-28T09:13:17.960Z,1.42
2019-04-28T09:14:52.168Z,1.52
2019-04-28T09:16:26.416Z,1.65
2019-04-28T09:18:00.688Z,2.40
2019-04-28T09:19:34.884Z,2.25
2019-04-28T09:21:09.084Z,3.50
2019-04-28T09:22:43.340Z,2.08
2019-04-28T09:24:17.613Z,2.33
2019-04-28T09:25:51.818Z,2.58
2019-04-28T09:27:26.330Z,3.25
2019-04-28T09:29:00.568Z,3.62
2019-04-28T09:30:34.845Z,1.95
2019-04-28T09:32:09.049Z,3.83
2019-04-28T09:33:43.257Z,5.12
2019-04-28T09:35:17.503Z,0.88
2019-04-28T09:36:53.184Z,2.15
2019-04-28T09:38:27.392Z,1.57
2019-04-28T09:40:06.048Z,7.75
2019-04-28T09:41:41.908Z,2.85
2019-04-28T09:43:17.753Z,1.80
2019-04-28T09:44:51.968Z,1.77
2019-04-28T09:46:28.131Z,1.32
2019-04-28T09:48:02.417Z,3.80
2019-04-28T09:49:36.620Z,1.20
2019-04-28T09:51:10.952Z,3.02
2019-04-28T09:52:45.159Z,2.67
2019-04-28T09:54:19.368Z,2.87
2019-04-28T09:55:53.600Z,1.98
2019-04-28T09:57:27.841Z,3.08
2019-04-28T09:59:02.048Z,3.15
2019-04-28T10:00:37.896Z,1.37
2019-04-28T10:02:12.702Z,3.20
2019-04-28T10:03:46.908Z,1.95
2019-04-28T10:05:21.180Z,2.15
2019-04-28T10:06:55.843Z,1.52
2019-04-28T10:08:30.046Z,3.22
2019-04-28T10:10:06.814Z,1.62
2019-04-28T10:11:41.005Z,1.55
2019-04-28T10:13:15.246Z,2.83
2019-04-28T10:14:49.440Z,0.80
2019-04-28T10:16:23.763Z,7.85
2019-04-28T10:17:57.959Z,3.52
2019-04-28T10:19:32.662Z,2.55
2019-04-28T10:21:07.298Z,2.35
2019-04-28T10:22:41.500Z,1.95
2019-04-28T10:24:15.716Z,4.80
2019-04-28T10:25:50.045Z,2.87
2019-04-28T10:27:24.245Z,1.52
2019-04-28T10:28:58.460Z,2.90
2019-04-28T10:30:32.686Z,0.85
2019-04-28T10:32:06.987Z,3.52
2019-04-28T10:33:42.884Z,0.62
2019-04-28T10:35:19.100Z,1.98
2019-04-28T10:36:53.302Z,2.37
2019-04-28T10:38:27.498Z,0.60
2019-04-28T10:40:03.412Z,1.00
2019-04-28T10:41:39.089Z,6.78
2019-04-28T10:43:13.288Z,2.47
2019-04-28T10:44:48.360Z,1.27
2019-04-28T10:46:22.602Z,3.25
2019-04-28T10:47:56.809Z,1.92
2019-04-28T10:49:31.032Z,6.90
2019-04-28T10:51:05.425Z,1.05
2019-04-28T10:52:39.665Z,1.98
2019-04-28T10:54:13.877Z,2.42
2019-04-28T10:55:48.146Z,2.25
2019-04-28T10:57:22.345Z,0.93
2019-04-28T10:58:57.224Z,0.98
2019-04-28T11:00:33.078Z,1.52
2019-04-28T11:02:07.279Z,1.05
2019-04-28T11:03:43.116Z,4.05
2019-04-28T11:05:21.464Z,1.67
2019-04-28T11:06:55.666Z,2.00
2019-04-28T11:08:38.031Z,1.72
2019-04-28T11:10:16.708Z,2.15
2019-04-28T11:11:51.124Z,1.77
2019-04-28T11:13:25.399Z,5.28
2019-04-28T11:14:59.598Z,3.37
2019-04-28T11:16:35.471Z,0.80
2019-04-28T11:18:11.660Z,0.98
2019-04-28T11:19:46.274Z,2.00
2019-04-28T11:21:20.477Z,2.10
2019-04-28T11:22:54.718Z,2.47
2019-04-28T11:24:28.929Z,4.42
2019-04-28T11:26:03.236Z,3.98
2019-04-28T11:27:37.450Z,2.17
2019-04-28T11:29:11.692Z,1.50
2019-04-28T11:30:45.896Z,1.87
2019-04-28T11:32:20.139Z,3.50
2019-04-28T11:33:55.996Z,3.70
2019-04-28T11:35:31.840Z,4.20
2019-04-28T11:37:06.112Z,2.55
2019-04-28T11:38:40.355Z,3.37
2019-04-28T11:40:14.560Z,1.70
2019-04-28T11:41:48.761Z,1.17
2019-04-28T11:43:23.010Z,1.55
2019-04-28T11:44:57.204Z,1.60
2019-04-28T11:46:31.580Z,1.52
2019-04-28T11:48:05.854Z,1.35
2019-04-28T11:49:40.166Z,1.50
2019-04-28T11:51:14.379Z,1.60
2019-04-28T11:52:48.644Z,3.37
2019-04-28T11:54:24.189Z,1.07
2019-04-28T11:55:58.795Z,1.92
2019-04-28T11:57:32.996Z,3.67
2019-04-28T11:59:07.197Z,2.95
2019-04-28T12:00:41.592Z,2.77
2019-04-28T12:02:15.832Z,3.10
2019-04-28T12:03:51.680Z,4.08
2019-04-28T12:05:34.276Z,1.17
2019-04-28T12:07:03.435Z,4.58
2019-04-28T12:08:37.630Z,1.45
2019-04-28T12:10:13.868Z,3.15
2019-04-28T12:11:52.753Z,2.67
2019-04-28T12:13:37.668Z,2.22
2019-04-28T12:15:30.089Z,1.92
2019-04-28T12:17:22.144Z,1.32
2019-04-28T12:19:00.693Z,1.98
2019-04-28T12:20:34.897Z,2.25
2019-04-28T12:22:09.149Z,4.10
2019-04-28T12:23:43.353Z,7.05
2019-04-28T12:25:17.632Z,1.52
2019-04-28T12:26:51.833Z,1.45
2019-04-28T12:28:26.072Z,1.72
2019-04-28T12:30:00.293Z,3.22
2019-04-28T12:31:34.552Z,4.45
2019-04-28T12:33:08.762Z,2.65
2019-04-28T12:34:43.005Z,1.32
2019-04-28T12:36:17.204Z,1.30
2019-04-28T12:37:51.417Z,2.37
2019-04-28T12:39:25.652Z,1.65
2019-04-28T12:40:59.852Z,2.35
2019-04-28T12:42:34.059Z,1.30
2019-04-28T12:44:09.669Z,3.30
2019-04-28T12:45:43.892Z,1.35
2019-04-28T12:47:20.086Z,2.58
2019-04-28T12:48:55.924Z,1.07
2019-04-28T12:50:31.763Z,2.65
2019-04-28T12:52:06.241Z,1.75
2019-04-28T12:53:40.440Z,0.93
2019-04-28T12:55:14.710Z,2.77
2019-04-28T12:56:49.012Z,0.88
2019-04-28T12:58:23.273Z,1.35
2019-04-28T12:59:59.058Z,1.80
2019-04-28T13:01:40.718Z,1.50
2019-04-28T13:03:22.584Z,1.17
2019-04-28T13:04:58.420Z,1.05
2019-04-28T13:06:33.981Z,2.52
2019-04-28T13:08:08.480Z,1.85
2019-04-28T13:09:42.725Z,2.55
2019-04-28T13:11:17.149Z,2.67
2019-04-28T13:12:51.349Z,0.80
2019-04-28T13:14:25.560Z,3.02
2019-04-28T13:15:59.833Z,1.40
2019-04-28T13:17:34.037Z,3.02
2019-04-28T13:19:08.239Z,1.65
2019-04-28T13:20:42.440Z,1.20
2019-04-28T13:22:16.681Z,2.27
2019-04-28T13:23:51.190Z,5.33
2019-04-28T13:25:26.037Z,3.50
2019-04-28T13:27:00.249Z,4.80
2019-04-28T13:28:34.489Z,2.02
2019-04-28T13:30:09.194Z,3.25
2019-04-28T13:31:43.408Z,2.35
2019-04-28T13:33:17.668Z,2.40
2019-04-28T13:34:52.001Z,2.12
2019-04-28T13:36:26.194Z,3.30
2019-04-28T13:38:00.409Z,1.62
2019-04-28T13:39:36.313Z,2.70
2019-04-28T13:41:10.496Z,4.80
2019-04-28T13:42:44.705Z,3.08
2019-04-28T13:44:20.532Z,1.35
2019-04-28T13:45:54.741Z,2.52
2019-04-28T13:47:29.017Z,3.15
2019-04-28T13:49:04.904Z,5.40
2019-04-28T13:50:39.774Z,1.05
2019-04-28T13:52:13.972Z,3.12
2019-04-28T13:53:48.178Z,1.00
2019-04-28T13:55:26.781Z,2.12
2019-04-28T13:57:01.056Z,2.35
2019-04-28T13:58:36.239Z,2.45
2019-04-28T14:00:28.474Z,1.07
2019-04-28T14:02:11.316Z,2.27
2019-04-28T14:04:02.325Z,2.90
2019-04-28T14:05:50.353Z,2.08
2019-04-28T14:07:24.652Z,5.08
2019-04-28T14:08:58.853Z,6.25
2019-04-28T14:10:33.053Z,1.60
2019-04-28T14:12:07.732Z,1.60
2019-04-28T14:13:43.465Z,1.85
2019-04-28T14:15:17.684Z,2.40
2019-04-28T14:16:51.884Z,1.40
2019-04-28T14:18:26.174Z,1.82
2019-04-28T14:20:00.328Z,3.45
2019-04-28T14:21:34.593Z,12.30
2019-04-28T14:23:08.765Z,3.35
2019-04-28T14:24:43.044Z,2.70
2019-04-28T14:26:17.240Z,3.10
2019-04-28T14:27:51.419Z,3.20
2019-04-28T14:29:25.620Z,3.05
2019-04-28T14:30:59.870Z,3.77
2019-04-28T14:32:34.074Z,2.20
2019-04-28T14:34:08.272Z,1.60
2019-04-28T14:35:42.536Z,1.52
2019-04-28T14:37:16.722Z,3.35
2019-04-28T14:38:50.944Z,2.35
2019-04-28T14:40:25.137Z,4.62
2019-04-28T14:41:59.404Z,2.77
2019-04-28T14:43:33.648Z,2.85
2019-04-28T14:45:08.382Z,2.80
2019-04-28T14:46:42.643Z,4.45
2019-04-28T14:48:16.799Z,1.98
2019-04-28T14:49:51.088Z,3.27
2019-04-28T14:51:25.292Z,4.37
2019-04-28T14:52:59.565Z,1.50
2019-04-28T14:54:33.811Z,2.25
2019-04-28T14:56:07.979Z,2.55
2019-04-28T14:57:42.216Z,4.03
2019-04-28T14:59:16.437Z,1.10
2019-04-28T15:00:52.264Z,1.98
2019-04-28T15:02:37.239Z,1.07
2019-04-28T15:04:13.111Z,3.00
2019-04-28T15:06:04.381Z,1.65
2019-04-28T15:07:49.393Z,3.83
2019-04-28T15:09:25.205Z,4.37
2019-04-28T15:11:07.137Z,2.37
2019-04-28T15:12:41.732Z,1.02
2019-04-28T15:14:16.324Z,1.05
2019-04-28T15:15:50.566Z,2.25
2019-04-28T15:17:24.781Z,2.30
2019-04-28T15:18:59.021Z,6.08
2019-04-28T15:20:34.519Z,2.70
2019-04-28T15:22:08.743Z,3.75
2019-04-28T15:23:42.940Z,1.02
2019-04-28T15:25:17.639Z,3.87
2019-04-28T15:26:51.862Z,3.37
2019-04-28T15:28:26.066Z,4.95
2019-04-28T15:30:00.320Z,2.70
2019-04-28T15:31:34.520Z,4.95
2019-04-28T15:33:08.781Z,3.90
2019-04-28T15:34:43.081Z,3.70
2019-04-28T15:36:17.281Z,1.70
2019-04-28T15:37:51.495Z,3.40
2019-04-28T15:39:25.700Z,5.17
2019-04-28T15:40:59.901Z,4.75
2019-04-28T15:42:34.181Z,2.17
2019-04-28T15:44:08.385Z,2.10
2019-04-28T15:45:42.873Z,2.58
2019-04-28T15:47:17.153Z,3.15
2019-04-28T15:48:51.360Z,2.10
2019-04-28T15:50:25.600Z,1.05
2019-04-28T15:51:59.817Z,2.52
2019-04-28T15:53:35.661Z,2.33
2019-04-28T15:55:11.509Z,2.98
2019-04-28T15:56:46.557Z,2.12
2019-04-28T15:58:31.869Z,3.65
2019-04-28T16:00:09.273Z,1.42
2019-04-28T16:01:43.528Z,4.05
2019-04-28T16:03:18.142Z,1.85
2019-04-28T16:04:52.612Z,2.40
2019-04-28T16:06:26.766Z,1.90
2019-04-28T16:08:01.049Z,2.60
2019-04-28T16:09:35.567Z,4.20
2019-04-28T16:11:11.202Z,1.45
2019-04-28T16:12:53.049Z,3.25
2019-04-28T16:14:28.765Z,1.87
2019-04-28T16:16:03.058Z,1.57
2019-04-28T16:17:39.545Z,1.92
2019-04-28T16:19:13.752Z,1.50
2019-04-28T16:20:48.853Z,1.90
2019-04-28T16:22:23.788Z,2.47
2019-04-28T16:23:57.998Z,1.42
2019-04-28T16:25:36.526Z,3.45
2019-04-28T16:27:10.736Z,2.85
2019-04-28T16:28:45.369Z,7.12
2019-04-28T16:30:20.246Z,3.35
2019-04-28T16:31:54.454Z,2.15
2019-04-28T16:33:28.870Z,2.67
2019-04-28T16:35:03.090Z,2.08
2019-04-28T16:36:37.317Z,3.30
2019-04-28T16:38:11.525Z,2.17
2019-04-28T16:39:45.742Z,4.65
2019-04-28T16:41:20.629Z,3.50
2019-04-28T16:42:57.076Z,4.92
2019-04-28T16:44:33.305Z,4.45
2019-04-28T16:46:10.190Z,3.75
2019-04-28T16:47:44.115Z,5.65
2019-04-28T16:49:18.398Z,3.62
2019-04-28T16:50:52.723Z,4.75
2019-04-28T16:52:26.964Z,4.65
2019-04-28T16:54:01.230Z,3.90
2019-04-28T16:55:40.052Z,3.92
2019-04-28T16:57:21.914Z,5.40
2019-04-28T16:59:03.761Z,4.37
2019-04-28T17:00:58.025Z,3.33
2019-04-28T17:02:33.897Z,4.20
2019-04-28T17:04:08.101Z,3.72
2019-04-28T17:05:42.304Z,2.27
2019-04-28T17:07:16.565Z,4.90
2019-04-28T17:08:50.852Z,3.33
2019-04-28T17:10:25.112Z,5.45
2019-04-28T17:11:59.333Z,5.80
2019-04-28T17:13:33.632Z,6.40
2019-04-28T17:15:08.467Z,8.05
2019-04-28T17:16:42.840Z,7.67
2019-04-28T17:18:17.054Z,11.05
2019-04-28T17:19:51.304Z,11.33
2019-04-28T17:21:25.686Z,9.55
2019-04-28T17:22:59.892Z,10.03
2019-04-28T17:24:34.093Z,9.98
2019-04-28T17:26:11.266Z,12.37
2019-04-28T17:27:44.657Z,11.00
2019-04-28T17:29:18.868Z,12.40
2019-04-28T17:30:53.137Z,15.03
2019-04-28T17:32:27.768Z,17.52
2019-04-28T17:34:02.072Z,19.35
2019-04-28T17:35:36.308Z,21.65
2019-04-28T17:37:12.301Z,18.07
2019-04-28T17:38:46.633Z,14.40
2019-04-28T17:40:22.485Z,16.93
2019-04-28T17:41:56.721Z,16.40
2019-04-28T17:43:30.994Z,15.83
2019-04-28T17:45:07.535Z,19.60
2019-04-28T17:46:41.836Z,20.60
2019-04-28T17:48:24.220Z,17.92
2019-04-28T17:49:58.552Z,16.48
2019-04-28T17:51:32.775Z,10.60
2019-04-28T17:53:06.987Z,8.70
2019-04-28T17:54:41.197Z,11.43
2019-04-28T17:56:15.484Z,6.60
2019-04-28T17:57:49.676Z,5.80
2019-04-28T17:59:23.953Z,5.25
2019-04-28T18:01:00.274Z,6.97
2019-04-28T18:02:36.121Z,6.33
2019-04-28T18:04:28.353Z,6.62
2019-04-28T18:06:17.438Z,4.65
2019-04-28T18:07:43.790Z,12.73
2019-04-28T18:09:18.369Z,13.05
2019-04-28T18:10:52.597Z,22.05
2019-04-28T18:12:26.877Z,21.12
2019-04-28T18:14:03.983Z,44.45
2019-04-28T18:15:46.385Z,36.13
2019-04-28T18:17:38.720Z,15.63
2019-04-28T18:19:15.100Z,14.68
2019-04-28T18:20:49.418Z,13.45
2019-04-28T18:22:23.649Z,15.85
2019-04-28T18:23:57.947Z,11.95
2019-04-28T18:25:33.801Z,5.70
2019-04-28T18:27:08.150Z,4.95
2019-04-28T18:28:42.349Z,3.12
2019-04-28T18:30:18.294Z,6.70
2019-04-28T18:31:54.151Z,7.22
2019-04-28T18:33:35.989Z,7.17
2019-04-28T18:35:14.926Z,3.80
2019-04-28T18:37:03.076Z,5.45
2019-04-28T18:38:50.762Z,9.90
2019-04-28T18:40:32.258Z,4.97
2019-04-28T18:42:08.140Z,9.88
2019-04-28T18:44:02.004Z,11.12
2019-04-28T18:45:36.308Z,13.05
2019-04-28T18:47:10.544Z,13.10
2019-04-28T18:48:45.116Z,18.20
2019-04-28T18:50:19.657Z,21.00
2019-04-28T18:51:53.871Z,15.63
2019-04-28T18:53:28.084Z,8.83
2019-04-28T18:55:02.347Z,10.00
2019-04-28T18:56:36.948Z,9.33
2019-04-28T18:58:11.242Z,8.23
2019-04-28T18:59:45.480Z,10.03
2019-04-28T19:01:27.410Z,7.85
2019-04-28T19:03:01.677Z,10.88
2019-04-28T19:04:35.908Z,8.78
2019-04-28T19:06:10.184Z,11.38
2019-04-28T19:07:48.992Z,15.65
2019-04-28T19:09:24.855Z,18.00
2019-04-28T19:11:00.729Z,19.10
2019-04-28T19:12:36.577Z,16.85
2019-04-28T19:14:15.433Z,13.60
2019-04-28T19:15:56.768Z,9.15
2019-04-28T19:17:32.620Z,8.08
2019-04-28T19:19:08.519Z,4.45
2019-04-28T19:20:42.760Z,5.42
2019-04-28T19:22:16.990Z,4.40
2019-04-28T19:23:54.087Z,2.15
2019-04-28T19:25:27.191Z,4.17
2019-04-28T19:27:01.384Z,9.08
2019-04-28T19:28:35.601Z,6.37
2019-04-28T19:30:10.282Z,2.85
2019-04-28T19:31:45.784Z,3.83
2019-04-28T19:33:20.040Z,3.10
2019-04-28T19:34:54.249Z,4.80
2019-04-28T19:36:28.960Z,4.25
2019-04-28T19:38:03.212Z,6.20
2019-04-28T19:39:37.417Z,6.25
2019-04-28T19:41:11.621Z,3.67
2019-04-28T19:42:45.840Z,4.72
2019-04-28T19:44:20.155Z,3.45
2019-04-28T19:45:55.940Z,5.20
2019-04-28T19:47:30.186Z,2.80
2019-04-28T19:49:04.380Z,4.90
2019-04-28T19:50:38.620Z,4.83
2019-04-28T19:52:13.436Z,3.47
2019-04-28T19:53:47.670Z,4.33
2019-04-28T19:55:26.380Z,5.60
2019-04-28T19:57:11.428Z,4.05
2019-04-28T19:58:53.406Z,4.45
2019-04-28T20:00:32.228Z,4.37
2019-04-28T20:02:06.869Z,2.70
2019-04-28T20:03:41.161Z,3.80
2019-04-28T20:05:15.373Z,3.77
2019-04-28T20:06:49.634Z,4.05
2019-04-28T20:08:23.882Z,4.42
2019-04-28T20:09:58.134Z,3.10
2019-04-28T20:11:32.340Z,4.28
2019-04-28T20:13:06.550Z,5.47
2019-04-28T20:14:40.791Z,4.55
2019-04-28T20:16:15.022Z,6.47
2019-04-28T20:17:49.220Z,7.05
2019-04-28T20:19:23.445Z,4.72
2019-04-28T20:20:57.664Z,6.00
2019-04-28T20:22:31.888Z,3.52
2019-04-28T20:24:06.102Z,3.40
2019-04-28T20:25:41.061Z,4.37
2019-04-28T20:27:15.270Z,6.33
2019-04-28T20:28:49.476Z,5.87
2019-04-28T20:30:23.687Z,6.25
2019-04-28T20:31:57.937Z,4.70
2019-04-28T20:33:32.143Z,3.55
2019-04-28T20:35:06.757Z,4.72
2019-04-28T20:36:45.574Z,3.87
2019-04-28T20:38:24.355Z,4.03
2019-04-28T20:40:02.640Z,3.70
2019-04-28T20:41:36.904Z,3.87
2019-04-28T20:43:21.664Z,6.67
2019-04-28T20:44:55.955Z,3.25
2019-04-28T20:46:30.148Z,6.53
2019-04-28T20:48:04.789Z,3.72
2019-04-28T20:49:39.029Z,6.58
2019-04-28T20:51:13.236Z,6.90
2019-04-28T20:52:47.452Z,7.58
2019-04-28T20:54:22.256Z,6.50
2019-04-28T20:55:56.571Z,11.00
2019-04-28T20:57:30.783Z,8.43
2019-04-28T20:59:04.978Z,11.28
2019-04-28T21:00:39.188Z,6.30
2019-04-28T21:02:13.895Z,10.28
2019-04-28T21:03:48.115Z,11.18